Time;durP1;ratioP1;P1;durP2;ratioP2;P2;SDS_P1;SDS_P2;PMS_P1;PMS_P2;Temp;Humidity;BMP_temperature;BMP_pressure;BME280_temperature;BME280_humidity;BME280_pressure;Samples;Min_cycle;Max_cycle;Signal;HPM_P1;HPM_P2
2023/05/13 00:01:27;;;;;;;2.97;2.10;;;;;;;;;;5098283;28;20465;-82
2023/05/13 00:03:52;;;;;;;6.45;2.05;;;;;;;;;;5115194;28;20058;-82
2023/05/13 00:06:17;;;;;;;3.58;2.00;;;;;;;;;;5114967;28;20031;-81
2023/05/13 00:08:43;;;;;;;6.70;2.45;;;;;;;;;;5098104;28;20049;-81
2023/05/13 00:11:08;;;;;;;2.92;2.20;;;;;;;;;;5115037;28;20029;-81
2023/05/13 00:13:34;;;;;;;3.08;2.20;;;;;;;;;;5115255;28;20463;-81
2023/05/13 00:15:59;;;;;;;2.42;1.90;;;;;;;;;;5097935;28;20138;-81
2023/05/13 00:18:25;;;;;;;2.65;2.00;;;;;;;;;;5114933;28;20031;-81
2023/05/13 00:20:51;;;;;;;2.97;2.40;;;;;;;;;;5133909;28;20223;-82
2023/05/13 00:23:16;;;;;;;2.40;2.20;;;;;;;;;;5115218;28;20552;-82
2023/05/13 00:25:43;;;;;;;2.42;2.22;;;;;;;;;;5133866;28;20034;-82
2023/05/13 00:28:09;;;;;;;2.28;1.90;;;;;;;;;;5115132;28;20038;-81
2023/05/13 00:30:35;;;;;;;2.38;2.17;;;;;;;;;;5097926;28;20023;-81
2023/05/13 00:33:01;;;;;;;3.20;2.10;;;;;;;;;;5114867;28;20034;-81
2023/05/13 00:35:26;;;;;;;3.58;2.20;;;;;;;;;;5114994;28;20027;-82
2023/05/13 00:37:52;;;;;;;3.47;2.20;;;;;;;;;;5133742;28;20023;-81
2023/05/13 00:40:23;;;;;;;2.17;1.98;;;;;;;;;;5114956;28;20039;-82
2023/05/13 00:42:49;;;;;;;2.38;2.08;;;;;;;;;;5114832;28;20032;-82
2023/05/13 00:45:14;;;;;;;2.60;2.10;;;;;;;;;;5114924;28;20023;-82
2023/05/13 00:47:41;;;;;;;2.53;2.00;;;;;;;;;;5115061;28;20080;-82
2023/05/13 00:50:07;;;;;;;3.75;2.03;;;;;;;;;;5114744;28;20027;-82
2023/05/13 00:52:33;;;;;;;2.55;2.20;;;;;;;;;;5114810;28;20031;-82
2023/05/13 00:54:58;;;;;;;3.75;2.10;;;;;;;;;;5115086;28;20034;-82
2023/05/13 00:57:24;;;;;;;3.45;2.20;;;;;;;;;;5116940;27;20038;-82
2023/05/13 00:59:49;;;;;;;3.17;2.42;;;;;;;;;;5136775;27;20027;-82
2023/05/13 01:02:23;;;;;;;2.83;2.08;;;;;;;;;;5118335;27;20038;-82
2023/05/13 01:05:01;;;;;;;;;;;;;;;;;;5118632;27;20027;-82
2023/05/13 01:07:32;;;;;;;3.70;2.47;;;;;;;;;;5136822;27;19911;-81
2023/05/13 01:10:07;;;;;;;2.33;2.13;;;;;;;;;;5136633;27;20358;-81
2023/05/13 01:12:35;;;;;;;2.40;2.00;;;;;;;;;;5136846;27;20125;-81
2023/05/13 01:15:30;;;;;;;7.78;2.10;;;;;;;;;;5117938;27;20046;-81
2023/05/13 01:18:06;;;;;;;2.33;2.10;;;;;;;;;;5096362;27;20047;-81
2023/05/13 01:20:32;;;;;;;3.20;2.20;;;;;;;;;;5118597;27;20088;-81
2023/05/13 01:22:58;;;;;;;2.28;2.08;;;;;;;;;;5100992;27;20030;-81
2023/05/13 01:25:24;;;;;;;2.38;2.08;;;;;;;;;;5100903;27;20094;-81
2023/05/13 01:27:50;;;;;;;3.38;2.35;;;;;;;;;;5136291;27;20031;-81
2023/05/13 01:30:16;;;;;;;2.78;2.30;;;;;;;;;;5136236;27;20525;-81
2023/05/13 01:32:41;;;;;;;2.10;1.95;;;;;;;;;;5117884;27;20121;-81
2023/05/13 01:35:08;;;;;;;2.47;2.00;;;;;;;;;;5117807;27;20023;-81
2023/05/13 01:37:34;;;;;;;5.32;2.50;;;;;;;;;;5117622;27;20401;-81
2023/05/13 01:40:00;;;;;;;6.05;2.25;;;;;;;;;;5100943;27;20039;-82
2023/05/13 01:42:28;;;;;;;2.70;2.30;;;;;;;;;;5136121;27;20080;-82
2023/05/13 01:44:53;;;;;;;2.65;2.15;;;;;;;;;;5118214;27;20377;-82
2023/05/13 01:47:19;;;;;;;2.45;2.22;;;;;;;;;;5117499;27;20038;-81
2023/05/13 01:49:44;;;;;;;2.97;2.28;;;;;;;;;;5136047;27;20397;-81
2023/05/13 01:52:10;;;;;;;6.18;2.50;;;;;;;;;;5135991;27;20035;-82
2023/05/13 01:54:35;;;;;;;3.72;2.20;;;;;;;;;;5116901;27;20046;-82
2023/05/13 01:57:02;;;;;;;2.47;2.10;;;;;;;;;;5135814;27;20110;-81
2023/05/13 01:59:27;;;;;;;2.38;2.17;;;;;;;;;;5100440;27;20050;-81
2023/05/13 02:01:52;;;;;;;3.17;2.10;;;;;;;;;;5135830;27;20477;-81
2023/05/13 02:04:18;;;;;;;3.95;2.38;;;;;;;;;;5135764;27;20027;-81
2023/05/13 02:06:43;;;;;;;3.67;2.28;;;;;;;;;;5099779;27;20047;-81
2023/05/13 02:09:09;;;;;;;3.10;2.20;;;;;;;;;;5099859;27;20023;-81
2023/05/13 02:11:34;;;;;;;2.45;2.25;;;;;;;;;;5100137;27;20027;-81
2023/05/13 02:14:00;;;;;;;2.63;2.42;;;;;;;;;;5135796;27;20031;-81
2023/05/13 02:16:25;;;;;;;2.40;2.20;;;;;;;;;;5116937;27;20104;-81
2023/05/13 02:18:50;;;;;;;2.72;2.17;;;;;;;;;;5100180;27;20049;-81
2023/05/13 02:21:16;;;;;;;3.53;2.47;;;;;;;;;;5135830;27;20077;-82
2023/05/13 02:23:41;;;;;;;2.22;2.03;;;;;;;;;;5082765;27;20058;-82
2023/05/13 02:26:06;;;;;;;4.00;2.10;;;;;;;;;;5116773;27;20083;-82
2023/05/13 02:28:32;;;;;;;2.20;2.00;;;;;;;;;;5116760;27;20034;-82
2023/05/13 02:30:57;;;;;;;3.45;2.25;;;;;;;;;;5134915;27;20058;-81
2023/05/13 02:33:23;;;;;;;2.10;2.00;;;;;;;;;;5117148;27;20046;-82
2023/05/13 02:35:49;;;;;;;5.35;2.30;;;;;;;;;;5116503;27;20531;-81
2023/05/13 02:38:14;;;;;;;3.05;2.40;;;;;;;;;;5135079;27;20047;-81
2023/05/13 02:40:39;;;;;;;2.85;2.28;;;;;;;;;;5116759;27;20114;-81
2023/05/13 02:43:05;;;;;;;2.38;2.17;;;;;;;;;;5099628;27;20039;-81
2023/05/13 02:45:30;;;;;;;2.85;2.30;;;;;;;;;;5099234;27;20370;-81
2023/05/13 02:47:56;;;;;;;2.42;2.22;;;;;;;;;;5135203;27;20035;-81
2023/05/13 02:50:22;;;;;;;3.20;2.47;;;;;;;;;;5135189;27;20031;-81
2023/05/13 02:52:47;;;;;;;2.63;2.42;;;;;;;;;;5116269;27;20027;-81
2023/05/13 02:55:12;;;;;;;3.78;2.40;;;;;;;;;;5116304;27;20054;-81
2023/05/13 02:57:38;;;;;;;2.67;2.22;;;;;;;;;;5116208;27;20023;-81
2023/05/13 03:00:04;;;;;;;2.40;2.20;;;;;;;;;;5116075;27;20458;-80
2023/05/13 03:02:31;;;;;;;2.70;2.30;;;;;;;;;;5116107;27;20031;-81
2023/05/13 03:04:57;;;;;;;3.47;2.33;;;;;;;;;;5134163;27;20489;-80
2023/05/13 03:07:23;;;;;;;2.47;2.28;;;;;;;;;;5115710;27;20031;-81
2023/05/13 03:09:48;;;;;;;2.30;2.10;;;;;;;;;;5116155;27;20099;-80
2023/05/13 03:12:13;;;;;;;2.63;2.28;;;;;;;;;;5115798;27;20037;-80
2023/05/13 03:14:39;;;;;;;4.80;2.55;;;;;;;;;;5115476;27;20075;-81
2023/05/13 03:17:05;;;;;;;2.92;2.30;;;;;;;;;;5115264;27;20068;-81
2023/05/13 03:19:31;;;;;;;2.80;2.40;;;;;;;;;;5114770;27;20076;-81
2023/05/13 03:21:57;;;;;;;2.40;2.20;;;;;;;;;;5098573;27;20061;-81
2023/05/13 03:24:22;;;;;;;4.45;2.42;;;;;;;;;;5115206;27;20030;-82
2023/05/13 03:26:48;;;;;;;2.70;2.30;;;;;;;;;;5115927;27;20031;-81
2023/05/13 03:29:13;;;;;;;2.35;2.15;;;;;;;;;;5115283;27;20401;-81
2023/05/13 03:31:39;;;;;;;2.78;2.33;;;;;;;;;;5115975;27;20027;-81
2023/05/13 03:34:04;;;;;;;3.33;2.50;;;;;;;;;;5115393;27;20031;-81
2023/05/13 03:36:31;;;;;;;2.45;2.25;;;;;;;;;;5098625;27;20054;-81
2023/05/13 03:38:56;;;;;;;2.72;2.28;;;;;;;;;;5133939;27;20023;-81
2023/05/13 03:41:21;;;;;;;2.40;2.20;;;;;;;;;;5133893;27;20031;-81
2023/05/13 03:43:47;;;;;;;3.00;2.25;;;;;;;;;;5115043;27;20027;-81
2023/05/13 03:46:12;;;;;;;2.42;2.13;;;;;;;;;;5115314;28;20100;-82
2023/05/13 03:48:37;;;;;;;2.70;2.13;;;;;;;;;;5098137;28;20019;-82
2023/05/13 03:51:03;;;;;;;3.88;2.40;;;;;;;;;;5133677;27;20414;-81
2023/05/13 03:53:28;;;;;;;3.00;2.50;;;;;;;;;;5133490;27;20019;-81
2023/05/13 03:55:54;;;;;;;2.47;2.28;;;;;;;;;;5115027;27;20023;-81
2023/05/13 03:58:21;;;;;;;2.85;2.60;;;;;;;;;;5114936;27;20027;-81
2023/05/13 04:00:47;;;;;;;5.45;2.55;;;;;;;;;;5133241;28;20054;-81
2023/05/13 04:03:16;;;;;;;2.75;2.28;;;;;;;;;;5115077;28;20512;-81
2023/05/13 04:05:42;;;;;;;2.92;2.53;;;;;;;;;;5114887;28;20038;-82
2023/05/13 04:08:07;;;;;;;2.70;2.50;;;;;;;;;;5115175;28;20038;-81
2023/05/13 04:10:33;;;;;;;3.10;2.22;;;;;;;;;;5098104;28;20110;-82
2023/05/13 04:12:58;;;;;;;2.50;2.30;;;;;;;;;;5133646;28;20074;-81
2023/05/13 04:15:24;;;;;;;2.70;2.45;;;;;;;;;;5133244;27;20105;-81
2023/05/13 04:17:50;;;;;;;2.55;2.30;;;;;;;;;;5081001;28;20023;-81
2023/05/13 04:20:15;;;;;;;2.67;2.20;;;;;;;;;;5114714;28;20053;-82
2023/05/13 04:22:41;;;;;;;2.33;2.13;;;;;;;;;;5133216;28;20114;-81
2023/05/13 04:25:06;;;;;;;4.63;2.47;;;;;;;;;;5133248;28;20030;-82
2023/05/13 04:27:32;;;;;;;3.20;2.60;;;;;;;;;;5098341;28;20479;-82
2023/05/13 04:29:57;;;;;;;2.85;2.47;;;;;;;;;;5132986;27;20046;-82
2023/05/13 04:32:23;;;;;;;3.65;2.78;;;;;;;;;;5102053;27;20161;-81
2023/05/13 04:34:48;;;;;;;2.80;2.60;;;;;;;;;;5118790;27;20061;-81
2023/05/13 04:37:14;;;;;;;2.40;2.20;;;;;;;;;;5101719;27;20111;-81
2023/05/13 04:39:39;;;;;;;2.38;2.17;;;;;;;;;;5101580;27;20458;-81
2023/05/13 04:42:05;;;;;;;3.53;2.45;;;;;;;;;;5119297;27;20058;-79
2023/05/13 04:44:31;;;;;;;2.75;2.47;;;;;;;;;;5119650;27;20027;-81
2023/05/13 04:46:56;;;;;;;3.15;2.45;;;;;;;;;;5102849;27;20027;-81
2023/05/13 04:49:21;;;;;;;3.92;2.58;;;;;;;;;;5119039;27;20526;-80
2023/05/13 04:51:47;;;;;;;3.65;2.53;;;;;;;;;;5102197;27;20028;-81
2023/05/13 04:54:12;;;;;;;2.78;2.40;;;;;;;;;;5102024;27;20065;-81
2023/05/13 04:56:40;;;;;;;2.80;2.50;;;;;;;;;;5137905;27;20525;-84
2023/05/13 04:59:07;;;;;;;3.33;2.63;;;;;;;;;;5102328;27;20092;-82
2023/05/13 05:01:33;;;;;;;5.93;3.05;;;;;;;;;;5137821;27;20031;-80
2023/05/13 05:03:58;;;;;;;3.40;2.50;;;;;;;;;;5101853;27;20069;-81
2023/05/13 05:06:23;;;;;;;3.67;2.65;;;;;;;;;;5119011;27;20491;-81
2023/05/13 05:08:49;;;;;;;2.67;2.42;;;;;;;;;;5119035;27;20530;-81
2023/05/13 05:11:14;;;;;;;3.22;2.30;;;;;;;;;;5101940;27;20031;-81
2023/05/13 05:13:40;;;;;;;2.58;2.30;;;;;;;;;;5119046;27;20031;-82
2023/05/13 05:16:06;;;;;;;2.28;2.08;;;;;;;;;;5101857;27;20055;-82
2023/05/13 05:18:31;;;;;;;3.10;2.30;;;;;;;;;;5136764;27;20055;-80
2023/05/13 05:20:56;;;;;;;2.92;2.60;;;;;;;;;;5118620;27;20080;-80
2023/05/13 05:23:22;;;;;;;2.15;2.00;;;;;;;;;;5102108;27;20365;-80
2023/05/13 05:25:47;;;;;;;2.45;2.20;;;;;;;;;;5101796;27;20038;-82
2023/05/13 05:28:13;;;;;;;3.88;2.63;;;;;;;;;;5119181;27;20053;-82
2023/05/13 05:30:38;;;;;;;2.38;2.15;;;;;;;;;;5101718;27;20050;-81
2023/05/13 05:33:05;;;;;;;3.00;2.53;;;;;;;;;;5101714;27;20436;-82
2023/05/13 05:35:32;;;;;;;2.38;2.17;;;;;;;;;;5085693;27;20027;-82
2023/05/13 05:37:57;;;;;;;3.55;2.47;;;;;;;;;;5119059;27;20054;-82
2023/05/13 05:40:22;;;;;;;2.58;2.20;;;;;;;;;;5136931;27;20055;-82
2023/05/13 05:42:48;;;;;;;2.88;2.13;;;;;;;;;;5121195;27;20035;-81
2023/05/13 05:45:13;;;;;;;2.40;2.20;;;;;;;;;;5101193;27;20023;-83
2023/05/13 05:47:39;;;;;;;2.47;2.25;;;;;;;;;;5136528;27;20060;-81
2023/05/13 05:50:05;;;;;;;2.85;2.38;;;;;;;;;;5117883;27;20035;-81
2023/05/13 05:52:30;;;;;;;2.50;2.30;;;;;;;;;;5083966;27;20096;-81
2023/05/13 05:54:56;;;;;;;2.42;2.22;;;;;;;;;;5117434;27;20028;-83
2023/05/13 05:57:21;;;;;;;2.50;2.30;;;;;;;;;;5117558;27;20027;-83
2023/05/13 05:59:46;;;;;;;2.70;2.25;;;;;;;;;;5117502;27;20059;-81
2023/05/13 06:02:12;;;;;;;3.00;2.70;;;;;;;;;;5118999;27;20027;-80
2023/05/13 06:04:37;;;;;;;3.17;2.72;;;;;;;;;;5117325;27;20474;-81
2023/05/13 06:07:02;;;;;;;3.40;2.38;;;;;;;;;;5117403;27;20023;-82
2023/05/13 06:09:28;;;;;;;3.80;2.53;;;;;;;;;;5135824;27;20118;-81
2023/05/13 06:11:53;;;;;;;2.75;2.50;;;;;;;;;;5116946;27;20334;-80
2023/05/13 06:14:19;;;;;;;5.75;2.63;;;;;;;;;;5135361;27;20461;-80
2023/05/13 06:16:44;;;;;;;4.07;2.33;;;;;;;;;;5101032;27;20031;-79
2023/05/13 06:19:10;;;;;;;6.50;2.58;;;;;;;;;;5116862;27;20047;-78
2023/05/13 06:21:35;;;;;;;4.22;2.00;;;;;;;;;;5135183;27;20027;-85
2023/05/13 06:24:01;;;;;;;19.20;5.85;;;;;;;;;;5100300;27;20031;-83
2023/05/13 06:26:28;;;;;;;25.05;5.97;;;;;;;;;;5116755;27;20058;-85
2023/05/13 06:28:54;;;;;;;13.15;4.65;;;;;;;;;;5100091;27;20034;-83
2023/05/13 06:31:19;;;;;;;10.55;3.90;;;;;;;;;;5099049;27;20020;-82
2023/05/13 06:33:44;;;;;;;15.13;4.60;;;;;;;;;;5134123;27;20092;-82
2023/05/13 06:36:10;;;;;;;9.60;4.35;;;;;;;;;;5134175;27;20424;-82
2023/05/13 06:38:35;;;;;;;8.02;3.50;;;;;;;;;;5134190;27;20037;-83
2023/05/13 06:41:01;;;;;;;7.28;3.30;;;;;;;;;;5104920;27;20063;-82
2023/05/13 06:43:26;;;;;;;9.68;3.80;;;;;;;;;;5120482;27;20503;-83
2023/05/13 06:45:51;;;;;;;9.50;3.97;;;;;;;;;;5134074;27;20565;-83
2023/05/13 06:48:17;;;;;;;9.90;3.83;;;;;;;;;;5134183;27;20027;-83
2023/05/13 06:50:42;;;;;;;11.23;3.85;;;;;;;;;;5115590;27;20030;-83
2023/05/13 06:53:11;;;;;;;10.35;3.75;;;;;;;;;;5098434;27;20385;-83
2023/05/13 06:55:40;;;;;;;10.18;3.72;;;;;;;;;;5133728;27;20019;-83
2023/05/13 06:58:07;;;;;;;8.27;3.42;;;;;;;;;;5115378;27;20115;-83
2023/05/13 07:00:36;;;;;;;9.27;3.38;;;;;;;;;;5115097;27;20466;-83
2023/05/13 07:03:02;;;;;;;7.90;3.35;;;;;;;;;;5115166;27;20019;-83
2023/05/13 07:05:27;;;;;;;5.63;3.20;;;;;;;;;;5115368;27;20027;-84
2023/05/13 07:07:53;;;;;;;8.65;3.55;;;;;;;;;;5098508;27;20393;-84
2023/05/13 07:10:18;;;;;;;8.05;3.13;;;;;;;;;;5115068;27;20019;-84
2023/05/13 07:12:44;;;;;;;9.35;3.28;;;;;;;;;;5116285;27;20087;-85
2023/05/13 07:15:09;;;;;;;11.30;3.03;;;;;;;;;;5114774;27;20063;-85
2023/05/13 07:17:35;;;;;;;6.10;2.80;;;;;;;;;;5098317;27;20039;-85
2023/05/13 07:20:00;;;;;;;5.65;2.80;;;;;;;;;;5098137;27;20118;-84
2023/05/13 07:22:26;;;;;;;5.22;2.80;;;;;;;;;;5115358;27;20100;-85
2023/05/13 07:24:52;;;;;;;7.40;2.60;;;;;;;;;;5115648;27;20466;-84
2023/05/13 07:27:18;;;;;;;12.75;4.00;;;;;;;;;;5118161;27;20030;-84
2023/05/13 07:29:43;;;;;;;19.00;4.40;;;;;;;;;;5098179;27;20065;-84
2023/05/13 07:32:08;;;;;;;13.70;4.50;;;;;;;;;;5134006;27;20441;-83
2023/05/13 07:34:34;;;;;;;13.63;3.33;;;;;;;;;;5116398;27;20023;-83
2023/05/13 07:36:59;;;;;;;10.15;3.30;;;;;;;;;;5099362;27;20096;-84
2023/05/13 07:39:25;;;;;;;9.18;3.28;;;;;;;;;;5135589;27;20031;-84
2023/05/13 07:41:50;;;;;;;8.43;3.55;;;;;;;;;;5100011;27;20122;-83
2023/05/13 07:44:16;;;;;;;7.22;3.25;;;;;;;;;;5099855;27;20039;-83
2023/05/13 07:46:41;;;;;;;5.82;2.78;;;;;;;;;;5134117;27;20039;-83
2023/05/13 07:49:07;;;;;;;9.73;2.95;;;;;;;;;;5098897;27;20035;-83
2023/05/13 07:51:34;;;;;;;8.88;3.05;;;;;;;;;;5116098;27;20019;-82
2023/05/13 07:54:00;;;;;;;7.70;2.83;;;;;;;;;;5134352;27;20030;-84
2023/05/13 07:56:25;;;;;;;7.45;2.67;;;;;;;;;;5081766;27;20031;-84
2023/05/13 07:58:50;;;;;;;8.48;3.35;;;;;;;;;;5134227;27;20023;-84
2023/05/13 08:01:16;;;;;;;7.72;2.60;;;;;;;;;;5115813;28;20043;-87
2023/05/13 08:03:41;;;;;;;5.90;2.72;;;;;;;;;;5115770;28;20102;-84
2023/05/13 08:06:07;;;;;;;3.63;2.35;;;;;;;;;;5138059;27;20027;-83
2023/05/13 08:08:32;;;;;;;4.03;2.42;;;;;;;;;;5141054;27;20031;-83
2023/05/13 08:10:57;;;;;;;6.10;2.70;;;;;;;;;;5105339;27;20075;-83
2023/05/13 08:13:24;;;;;;;3.40;2.38;;;;;;;;;;5122521;27;20029;-83
2023/05/13 08:15:50;;;;;;;4.55;2.80;;;;;;;;;;5141121;27;20161;-83
2023/05/13 08:18:16;;;;;;;6.30;2.70;;;;;;;;;;5122799;27;20023;-84
2023/05/13 08:20:41;;;;;;;4.18;2.58;;;;;;;;;;5122586;27;20549;-79
2023/05/13 08:23:07;;;;;;;5.75;2.60;;;;;;;;;;5122730;27;20389;-80
2023/05/13 08:25:32;;;;;;;11.95;2.50;;;;;;;;;;5105602;27;20084;-79
2023/05/13 08:27:57;;;;;;;8.45;2.80;;;;;;;;;;5088502;27;20049;-79
2023/05/13 08:30:23;;;;;;;6.82;2.50;;;;;;;;;;5087845;27;20027;-79
2023/05/13 08:32:49;;;;;;;6.28;2.67;;;;;;;;;;5122286;27;20054;-79
2023/05/13 08:35:14;;;;;;;3.42;2.38;;;;;;;;;;5105331;27;20075;-80
2023/05/13 08:37:40;;;;;;;5.50;2.50;;;;;;;;;;5122673;27;20030;-79
2023/05/13 08:40:07;;;;;;;5.38;2.47;;;;;;;;;;5121914;27;20381;-79
2023/05/13 08:42:32;;;;;;;5.28;2.60;;;;;;;;;;5122464;27;20050;-79
2023/05/13 08:45:03;;;;;;;7.53;3.00;;;;;;;;;;5123670;27;20019;-80
2023/05/13 08:47:35;;;;;;;6.85;3.00;;;;;;;;;;5122965;27;20034;-78
2023/05/13 08:50:00;;;;;;;3.33;2.70;;;;;;;;;;5140579;27;20072;-80
2023/05/13 08:52:26;;;;;;;7.28;4.00;;;;;;;;;;5106164;27;20482;-79
2023/05/13 08:54:52;;;;;;;12.57;3.10;;;;;;;;;;5122819;27;20042;-80
2023/05/13 08:57:18;;;;;;;7.93;3.10;;;;;;;;;;5122875;27;20072;-78
2023/05/13 08:59:43;;;;;;;8.88;3.10;;;;;;;;;;5122330;27;20031;-82
2023/05/13 09:02:09;;;;;;;5.63;2.88;;;;;;;;;;5121777;27;20125;-84
2023/05/13 09:04:36;;;;;;;12.90;4.40;;;;;;;;;;5121418;27;20034;-82
2023/05/13 09:07:05;;;;;;;15.23;3.97;;;;;;;;;;5121983;27;20031;-79
2023/05/13 09:09:31;;;;;;;16.67;4.22;;;;;;;;;;5121430;27;20019;-79
2023/05/13 09:11:56;;;;;;;16.67;4.50;;;;;;;;;;5121046;27;20075;-79
2023/05/13 09:14:28;;;;;;;24.30;4.93;;;;;;;;;;5121473;27;20104;-79
2023/05/13 09:16:55;;;;;;;8.40;3.60;;;;;;;;;;5102066;28;20502;-80
2023/05/13 09:19:22;;;;;;;10.10;3.47;;;;;;;;;;5101112;27;20404;-81
2023/05/13 09:21:48;;;;;;;7.32;3.63;;;;;;;;;;5118288;27;20058;-79
2023/05/13 09:24:17;;;;;;;11.52;3.50;;;;;;;;;;5117886;27;20063;-80
2023/05/13 09:26:44;;;;;;;7.78;3.58;;;;;;;;;;5084977;27;20054;-79
2023/05/13 09:29:28;;;;;;;7.50;3.65;;;;;;;;;;5118232;27;20098;-79
2023/05/13 09:31:59;;;;;;;6.63;2.90;;;;;;;;;;5136388;27;20477;-79
2023/05/13 09:34:27;;;;;;;6.90;3.28;;;;;;;;;;5098284;27;20023;-80
2023/05/13 09:36:57;;;;;;;9.98;3.92;;;;;;;;;;5118194;27;20121;-79
2023/05/13 09:39:23;;;;;;;4.53;3.10;;;;;;;;;;5136506;27;20023;-82
2023/05/13 09:41:49;;;;;;;5.70;3.45;;;;;;;;;;5083811;27;20031;-80
2023/05/13 09:44:14;;;;;;;4.78;3.30;;;;;;;;;;5136028;27;20035;-81
2023/05/13 09:46:41;;;;;;;5.47;3.20;;;;;;;;;;5117819;27;20129;-80
2023/05/13 09:49:08;;;;;;;5.78;2.83;;;;;;;;;;5100653;27;20486;-79
2023/05/13 09:51:34;;;;;;;4.70;3.22;;;;;;;;;;5136288;27;20035;-80
2023/05/13 09:54:05;;;;;;;5.05;3.15;;;;;;;;;;5100723;27;20110;-80
2023/05/13 09:56:33;;;;;;;5.45;3.20;;;;;;;;;;5117416;27;20027;-81
2023/05/13 09:58:59;;;;;;;4.97;2.70;;;;;;;;;;5117436;27;20055;-79
2023/05/13 10:01:27;;;;;;;3.83;2.97;;;;;;;;;;5117012;27;20024;-79
2023/05/13 10:03:53;;;;;;;5.70;3.03;;;;;;;;;;5101691;27;20441;-80
2023/05/13 10:06:22;;;;;;;4.57;2.90;;;;;;;;;;5139136;27;20023;-79
2023/05/13 10:08:50;;;;;;;8.57;2.80;;;;;;;;;;5118125;27;20088;-79
2023/05/13 10:11:16;;;;;;;4.18;2.95;;;;;;;;;;5117434;27;20419;-79
2023/05/13 10:13:42;;;;;;;3.65;2.85;;;;;;;;;;5136159;27;20063;-79
2023/05/13 10:16:08;;;;;;;4.07;2.80;;;;;;;;;;5117312;27;20065;-79
2023/05/13 10:18:33;;;;;;;4.82;2.92;;;;;;;;;;5117261;27;20540;-78
2023/05/13 10:20:59;;;;;;;5.45;3.30;;;;;;;;;;5135358;27;20035;-79
2023/05/13 10:23:24;;;;;;;5.25;2.90;;;;;;;;;;5099940;27;20470;-80
2023/05/13 10:25:52;;;;;;;8.07;3.20;;;;;;;;;;5135219;27;20037;-79
2023/05/13 10:28:18;;;;;;;3.05;2.78;;;;;;;;;;5135211;27;20023;-79
2023/05/13 10:30:44;;;;;;;5.95;2.80;;;;;;;;;;5117152;27;20015;-81
2023/05/13 10:33:09;;;;;;;3.47;2.67;;;;;;;;;;5117589;27;20050;-80
2023/05/13 10:35:42;;;;;;;2.58;2.38;;;;;;;;;;5098563;28;20557;-81
2023/05/13 10:38:22;;;;;;;4.07;2.80;;;;;;;;;;5082090;28;20161;-81
2023/05/13 10:41:04;;;;;;;7.85;3.00;;;;;;;;;;5119738;27;20011;-82
2023/05/13 10:43:31;;;;;;;3.63;2.80;;;;;;;;;;5104625;27;20030;-80
2023/05/13 10:46:01;;;;;;;6.13;3.08;;;;;;;;;;5118955;27;20038;-79
2023/05/13 10:48:46;;;;;;;4.05;3.10;;;;;;;;;;5118865;27;20470;-81
2023/05/13 10:51:13;;;;;;;4.50;2.90;;;;;;;;;;5120302;27;20117;-81
2023/05/13 10:53:57;;;;;;;3.67;2.97;;;;;;;;;;5100596;28;20499;-79
2023/05/13 10:56:24;;;;;;;3.50;2.90;;;;;;;;;;5099916;28;20109;-80
2023/05/13 10:58:58;;;;;;;4.95;3.05;;;;;;;;;;5101501;28;20016;-82
2023/05/13 11:01:41;;;;;;;4.75;2.88;;;;;;;;;;5117183;28;20049;-80
2023/05/13 11:04:11;;;;;;;8.02;3.42;;;;;;;;;;5104603;27;20019;-82
2023/05/13 11:06:39;;;;;;;6.38;3.63;;;;;;;;;;5121139;27;20050;-82
2023/05/13 11:09:06;;;;;;;9.35;3.30;;;;;;;;;;5121152;27;20027;-80
2023/05/13 11:11:34;;;;;;;17.10;3.30;;;;;;;;;;5120263;27;20043;-82
2023/05/13 11:14:22;;;;;;;6.70;3.38;;;;;;;;;;5102091;27;20110;-79
2023/05/13 11:16:52;;;;;;;6.20;3.35;;;;;;;;;;5117919;27;20039;-80
2023/05/13 11:19:20;;;;;;;5.32;2.88;;;;;;;;;;5137017;27;20101;-79
2023/05/13 11:21:49;;;;;;;9.88;2.90;;;;;;;;;;5100452;27;20389;-80
2023/05/13 11:24:17;;;;;;;4.35;2.50;;;;;;;;;;5117345;27;20098;-81
2023/05/13 11:26:51;;;;;;;5.95;2.80;;;;;;;;;;5101261;27;20027;-81
2023/05/13 11:29:35;;;;;;;5.20;2.60;;;;;;;;;;5099755;27;20023;-79
2023/05/13 11:32:05;;;;;;;7.05;2.80;;;;;;;;;;5099937;27;20134;-80
2023/05/13 11:34:31;;;;;;;4.53;2.83;;;;;;;;;;5134467;27;20062;-79
2023/05/13 11:37:07;;;;;;;3.42;2.53;;;;;;;;;;5134608;27;20051;-80
2023/05/13 11:39:33;;;;;;;5.13;2.88;;;;;;;;;;5134971;27;20027;-79
2023/05/13 11:42:02;;;;;;;3.15;2.45;;;;;;;;;;5134140;27;20038;-81
2023/05/13 11:44:28;;;;;;;4.00;2.40;;;;;;;;;;5116833;27;20383;-79
2023/05/13 11:46:58;;;;;;;3.75;2.70;;;;;;;;;;5134717;27;20109;-78
2023/05/13 11:49:39;;;;;;;6.00;3.03;;;;;;;;;;5117143;28;20050;-80
2023/05/13 11:52:16;;;;;;;3.25;2.65;;;;;;;;;;5134233;27;20032;-80
2023/05/13 11:54:52;;;;;;;4.85;2.70;;;;;;;;;;5098936;27;20489;-80
2023/05/13 11:57:17;;;;;;;4.13;2.83;;;;;;;;;;5116118;28;20027;-80
2023/05/13 11:59:59;;;;;;;4.45;2.58;;;;;;;;;;5115551;27;20168;-80
2023/05/13 12:02:32;;;;;;;3.13;2.30;;;;;;;;;;5115240;28;20035;-80
2023/05/13 12:05:08;;;;;;;5.55;2.55;;;;;;;;;;5116074;28;20066;-79
2023/05/13 12:07:34;;;;;;;14.02;2.92;;;;;;;;;;5099430;28;20481;-80
2023/05/13 12:10:01;;;;;;;7.05;2.90;;;;;;;;;;5099612;28;20371;-85
2023/05/13 12:12:28;;;;;;;10.88;3.67;;;;;;;;;;5116192;28;20458;-81
2023/05/13 12:14:55;;;;;;;11.68;3.50;;;;;;;;;;5115251;28;20055;-79
2023/05/13 12:17:20;;;;;;;9.63;3.08;;;;;;;;;;5115755;28;20019;-81
2023/05/13 12:20:18;;;;;;;4.93;2.90;;;;;;;;;;5098539;28;20022;-81
2023/05/13 12:22:43;;;;;;;4.78;2.85;;;;;;;;;;5115515;28;20030;-81
2023/05/13 12:25:49;;;;;;;7.05;2.95;;;;;;;;;;5115153;28;20354;-80
2023/05/13 12:28:18;;;;;;;7.70;2.70;;;;;;;;;;5014595;28;20021;-80
2023/05/13 12:30:55;;;;;;;6.13;2.90;;;;;;;;;;5030673;28;20037;-80
2023/05/13 12:33:25;;;;;;;6.50;3.03;;;;;;;;;;5014377;28;20080;-80
2023/05/13 12:35:52;;;;;;;6.63;3.08;;;;;;;;;;4998160;28;20111;-80
2023/05/13 12:38:23;;;;;;;7.32;2.75;;;;;;;;;;5030667;28;20115;-81
2023/05/13 12:40:49;;;;;;;5.30;2.70;;;;;;;;;;5014933;28;20041;-81
2023/05/13 12:43:16;;;;;;;4.25;2.72;;;;;;;;;;5014600;28;20527;-80
2023/05/13 12:45:42;;;;;;;4.82;2.78;;;;;;;;;;5030951;28;20048;-81
2023/05/13 12:48:08;;;;;;;9.13;2.83;;;;;;;;;;5015077;28;20040;-80
2023/05/13 12:50:34;;;;;;;6.43;2.60;;;;;;;;;;4997492;28;20025;-81
2023/05/13 12:52:59;;;;;;;4.20;2.42;;;;;;;;;;5034221;28;20050;-80
2023/05/13 12:55:26;;;;;;;3.80;2.50;;;;;;;;;;5004100;28;20439;-80
2023/05/13 12:57:58;;;;;;;6.22;2.42;;;;;;;;;;5022644;28;20056;-81
2023/05/13 13:00:24;;;;;;;6.28;2.97;;;;;;;;;;5103436;27;20460;-80
2023/05/13 13:02:50;;;;;;;4.22;2.42;;;;;;;;;;5119046;27;20051;-79
2023/05/13 13:05:16;;;;;;;3.72;2.60;;;;;;;;;;5103282;27;20023;-80
2023/05/13 13:07:41;;;;;;;6.45;2.63;;;;;;;;;;5137350;27;20027;-82
2023/05/13 13:10:07;;;;;;;3.38;2.67;;;;;;;;;;5137386;27;20451;-80
2023/05/13 13:12:33;;;;;;;2.97;2.50;;;;;;;;;;5119334;27;20054;-80
2023/05/13 13:15:00;;;;;;;6.00;2.30;;;;;;;;;;5101364;27;20446;-79
2023/05/13 13:17:25;;;;;;;2.80;2.38;;;;;;;;;;5137063;27;20398;-80
2023/05/13 13:19:50;;;;;;;2.80;2.30;;;;;;;;;;5136705;27;20019;-79
2023/05/13 13:22:16;;;;;;;2.78;2.17;;;;;;;;;;5136864;27;20477;-79
2023/05/13 13:24:41;;;;;;;2.45;2.05;;;;;;;;;;5136636;27;20112;-79
2023/05/13 13:27:07;;;;;;;3.00;2.20;;;;;;;;;;5136524;27;20023;-78
2023/05/13 13:29:32;;;;;;;2.47;2.28;;;;;;;;;;5136498;27;20035;-78
2023/05/13 13:31:57;;;;;;;5.47;2.67;;;;;;;;;;5118117;27;20224;-80
2023/05/13 13:34:23;;;;;;;3.95;2.60;;;;;;;;;;5118014;27;20031;-80
2023/05/13 13:36:48;;;;;;;3.17;2.20;;;;;;;;;;5117948;27;20091;-80
2023/05/13 13:39:13;;;;;;;4.40;2.38;;;;;;;;;;5118002;27;20054;-80
2023/05/13 13:41:39;;;;;;;3.40;2.20;;;;;;;;;;5136558;27;20066;-79
2023/05/13 13:44:04;;;;;;;3.45;2.33;;;;;;;;;;5100802;27;20027;-80
2023/05/13 13:46:30;;;;;;;2.63;2.10;;;;;;;;;;5117933;27;20080;-80
2023/05/13 13:48:55;;;;;;;2.80;2.20;;;;;;;;;;5118217;27;20015;-79
2023/05/13 13:51:21;;;;;;;3.05;2.00;;;;;;;;;;5118579;27;20032;-80
2023/05/13 13:53:48;;;;;;;5.20;2.25;;;;;;;;;;5084267;27;20454;-81
2023/05/13 13:56:13;;;;;;;3.50;2.10;;;;;;;;;;5118259;27;20031;-78
2023/05/13 13:58:39;;;;;;;2.28;2.08;;;;;;;;;;5136652;27;20026;-80
2023/05/13 14:01:05;;;;;;;3.65;2.28;;;;;;;;;;5118173;27;20039;-79
2023/05/13 14:03:30;;;;;;;2.33;2.10;;;;;;;;;;5101214;27;20034;-80
2023/05/13 14:05:56;;;;;;;3.08;2.20;;;;;;;;;;5137645;27;20023;-79
2023/05/13 14:08:21;;;;;;;3.05;2.33;;;;;;;;;;5118708;27;20047;-80
2023/05/13 14:10:47;;;;;;;2.20;1.90;;;;;;;;;;5118817;27;20391;-80
2023/05/13 14:13:12;;;;;;;4.00;2.25;;;;;;;;;;5137139;27;20043;-80
2023/05/13 14:15:37;;;;;;;2.88;2.00;;;;;;;;;;5137138;27;20083;-79
2023/05/13 14:18:07;;;;;;;2.13;1.98;;;;;;;;;;5117608;27;20394;-79
2023/05/13 14:20:34;;;;;;;3.17;2.10;;;;;;;;;;5118024;27;20102;-79
2023/05/13 14:23:00;;;;;;;3.72;2.10;;;;;;;;;;5118018;27;20042;-79
2023/05/13 14:25:26;;;;;;;2.60;2.03;;;;;;;;;;5117318;27;20111;-80
2023/05/13 14:27:52;;;;;;;2.30;2.10;;;;;;;;;;5117391;27;20103;-80
2023/05/13 14:30:18;;;;;;;2.47;2.00;;;;;;;;;;5118162;27;20385;-81
2023/05/13 14:32:46;;;;;;;2.53;2.30;;;;;;;;;;5118029;27;20501;-80
2023/05/13 14:35:13;;;;;;;2.67;1.90;;;;;;;;;;5100725;27;20035;-79
2023/05/13 14:37:38;;;;;;;2.10;1.80;;;;;;;;;;5101169;27;20109;-80
2023/05/13 14:40:04;;;;;;;2.40;2.20;;;;;;;;;;5135586;27;20102;-79
2023/05/13 14:42:29;;;;;;;2.45;2.00;;;;;;;;;;5135377;27;20019;-80